Pagrindinis puslapis
METAR-TAF:

METAR-TAF

Oro uostai :

Galena, Aliaska, Jungtinės Amerikos Valstijos

platuma: 64-44N, ilguma: 156-56W, Aukštis: 46 m

Dabartinis oras

Ataskaita buvo paskelbta 17 minutes, ne 20:24 UTC
Ramus vėjas
Temperatūra -8°C
Drėgmė 92%
Slėgis 1022 hPa
Matomumas: 16.1 km
Mažai debesys ne aukštis 200 ft

METAR: PAGA 282024Z AUTO 00000KT 10SM FEW002 M08/M09 A3019 RMK AO2 FZRANO

Laikas: 12:41 (20:41 UTC)

Prognozė

Ataskaita buvo paskelbta 1 valandą ir 16 minutes, ne 19:25 UTC
Prognozė galioja nuo 28 metu 19 UTC su 29 metu 18 UTC
Vėjas kt iš Šiaurės
Matomumas: 10 km
Mažai debesys ne aukštis 200 ft
Su prošvaistėmis ne aukštis 10000 ft
Rūkas kaimynystėje
Laikinai
nuo 28 metu 19 UTC su 28 metu 22 UTC
Matomumas: 0.8 km
Apsiniaukę ne aukštis 200 ft
įšaldymas rūko

TAF: PAGA 281925Z 2819/2918 00000KT P6SM VCFG FEW002 BKN100 TEMPO 2819/2822 1/2SM FZFG OVC002

Orai ataskaitas ir orų prognozės (METAR, TAF).

turimą stotys yra geltonos ir raudonos taškus žemėlapyje.

Perkelti pele per norėdami pamatyti stoties vardą.

Tada spustelėkite, norėdami matyti oro stebėjimo ir prognozės.

Norėdami pakeisti žemėlapį: spustelėkite ant žalios mygtukų su juodo kryžiaus žemyn,; žalią mygtuką su brūkšneliu, jei norite nutolinti; arba žalių rodyklių gretimoms žemėlapius.


METAR-TAF: